Time;durP1;ratioP1;P1;durP2;ratioP2;P2;SDS_P1;SDS_P2;PMS_P1;PMS_P2;Temp;Humidity;BMP_temperature;BMP_pressure;BME280_temperature;BME280_humidity;BME280_pressure;Samples;Min_cycle;Max_cycle;Signal;HPM_P1;HPM_P2
2023/12/18 00:01:05;;;;;;;8.00;3.60;;;;;;;5.39;77.48;98034.30;108095;1277;22533;-79
2023/12/18 00:03:47;;;;;;;5.90;3.10;;;;;;;5.32;77.41;98027.52;108142;1281;25517;-79
2023/12/18 00:06:15;;;;;;;4.50;2.50;;;;;;;5.31;77.53;98025.11;108078;1281;23918;-79
2023/12/18 00:08:43;;;;;;;6.20;3.00;;;;;;;5.28;77.50;98021.97;108097;1282;22527;-79
2023/12/18 00:11:13;;;;;;;5.70;3.00;;;;;;;5.25;77.61;98015.88;108096;1281;22545;-79
2023/12/18 00:13:42;;;;;;;5.70;2.90;;;;;;;5.21;77.76;98008.66;108139;1281;22552;-80
2023/12/18 00:16:10;;;;;;;5.60;2.90;;;;;;;5.15;77.95;98006.70;108073;1281;25074;-79
2023/12/18 00:18:38;;;;;;;6.00;3.50;;;;;;;5.12;78.34;98007.94;108108;1282;22559;-79
2023/12/18 00:21:07;;;;;;;4.60;2.90;;;;;;;5.14;78.22;98006.02;108101;1281;24300;-79
2023/12/18 00:23:36;;;;;;;3.40;2.30;;;;;;;5.24;78.25;98004.44;108123;1281;23020;-79
2023/12/18 00:26:05;;;;;;;5.60;3.10;;;;;;;5.26;78.22;98003.42;108102;1281;22531;-79
2023/12/18 00:28:33;;;;;;;5.20;3.00;;;;;;;5.29;78.26;98000.77;108074;1274;25295;-79
2023/12/18 00:31:02;;;;;;;5.00;3.10;;;;;;;5.33;77.84;98002.15;108075;1281;26541;-80
2023/12/18 00:33:31;;;;;;;6.40;2.10;;;;;;;5.38;77.58;97996.64;108080;1275;22539;-79
2023/12/18 00:35:59;;;;;;;4.80;2.50;;;;;;;5.39;77.74;97983.86;108055;1281;22530;-79
2023/12/18 00:38:27;;;;;;;5.90;2.50;;;;;;;5.39;77.21;97985.02;108120;1281;23753;-80
2023/12/18 00:41:08;;;;;;;3.90;2.30;;;;;;;5.43;77.26;97990.91;108101;1281;22723;-80
2023/12/18 00:43:39;;;;;;;5.60;2.30;;;;;;;5.45;76.85;97996.31;108092;1281;25612;-80
2023/12/18 00:46:08;;;;;;;3.40;1.50;;;;;;;5.45;77.11;97995.30;108106;1281;24259;-79
2023/12/18 00:48:37;;;;;;;4.40;2.50;;;;;;;5.43;77.10;97992.56;108119;1281;22544;-80
2023/12/18 00:51:08;;;;;;;3.90;2.10;;;;;;;5.40;77.12;97999.91;108090;1260;22774;-80
2023/12/18 00:53:39;;;;;;;5.00;2.10;;;;;;;5.45;77.01;97979.80;108132;1280;26910;-79
2023/12/18 00:56:10;;;;;;;3.60;2.40;;;;;;;5.49;76.78;97978.41;108085;1282;29631;-79
2023/12/18 00:58:39;;;;;;;8.10;2.60;;;;;;;5.50;76.66;97982.05;108115;1275;22578;-80
2023/12/18 01:01:07;;;;;;;5.60;2.20;;;;;;;5.46;76.71;97978.09;108116;1282;22597;-80
2023/12/18 01:03:37;;;;;;;4.40;2.80;;;;;;;5.41;76.77;97979.14;108086;1274;22538;-80
2023/12/18 01:06:08;;;;;;;5.20;2.70;;;;;;;5.39;76.74;97983.33;108215;1275;22492;-80
2023/12/18 01:08:37;;;;;;;6.00;3.10;;;;;;;5.37;76.78;97981.80;108083;1279;22530;-80
2023/12/18 01:11:05;;;;;;;6.70;3.60;;;;;;;5.33;76.83;97977.56;108097;1281;24315;-80
2023/12/18 01:13:33;;;;;;;9.50;3.30;;;;;;;5.30;76.99;97982.72;108130;1281;22806;-80
2023/12/18 01:16:05;;;;;;;5.30;3.10;;;;;;;5.26;77.06;97981.05;108079;1281;22720;-79
2023/12/18 01:18:36;;;;;;;6.90;3.30;;;;;;;5.25;77.26;97977.23;108129;1281;22528;-80
2023/12/18 01:21:14;;;;;;;5.90;2.40;;;;;;;5.19;77.19;97976.94;108095;1281;23035;-79
2023/12/18 01:23:43;;;;;;;3.60;2.00;;;;;;;5.21;77.38;97966.67;108119;1281;22945;-79
2023/12/18 01:26:11;;;;;;;4.80;3.00;;;;;;;5.18;77.29;97968.09;108089;1281;25473;-79
2023/12/18 01:28:42;;;;;;;4.40;2.20;;;;;;;5.16;77.47;97969.45;108088;1280;23872;-79
2023/12/18 01:31:24;;;;;;;4.80;2.40;;;;;;;5.19;77.46;97956.48;108106;1281;22585;-79
2023/12/18 01:33:54;;;;;;;5.50;3.30;;;;;;;5.22;77.47;97949.98;108107;1281;24106;-79
2023/12/18 01:36:23;;;;;;;6.20;3.70;;;;;;;5.18;77.48;97954.88;108046;1281;25451;-79
2023/12/18 01:38:51;;;;;;;5.90;3.10;;;;;;;5.18;77.64;97953.94;108128;1281;22536;-79
2023/12/18 01:41:19;;;;;;;6.80;3.70;;;;;;;5.17;77.74;97958.33;108119;1281;22530;-79
2023/12/18 01:43:48;;;;;;;6.50;3.70;;;;;;;5.11;77.80;97961.31;108102;1281;22612;-79
2023/12/18 01:46:21;;;;;;;5.10;3.30;;;;;;;5.03;77.88;97965.66;108072;1280;22643;-79
2023/12/18 01:48:50;;;;;;;6.30;3.60;;;;;;;5.00;78.11;97956.59;108114;1281;23445;-79
2023/12/18 01:51:20;;;;;;;5.50;3.60;;;;;;;4.94;78.07;97954.11;108112;1274;22553;-79
2023/12/18 01:53:55;;;;;;;5.30;3.50;;;;;;;4.91;78.32;97953.46;108112;1275;22723;-79
2023/12/18 01:56:27;;;;;;;5.50;3.20;;;;;;;4.94;78.43;97955.86;108087;1274;22530;-79
2023/12/18 01:58:59;;;;;;;4.50;2.80;;;;;;;4.98;78.49;97947.05;108121;1273;22537;-79
2023/12/18 02:01:28;;;;;;;4.60;2.50;;;;;;;5.03;78.41;97934.33;107989;1282;22562;-79
2023/12/18 02:03:57;;;;;;;4.50;2.70;;;;;;;5.04;78.15;97930.77;108080;1275;22578;-79
2023/12/18 02:06:26;;;;;;;4.60;2.80;;;;;;;5.06;78.01;97927.55;108082;1274;22550;-79
2023/12/18 02:08:55;;;;;;;6.20;3.50;;;;;;;5.05;77.94;97928.16;108107;1281;24341;-79
2023/12/18 02:11:24;;;;;;;4.20;2.50;;;;;;;4.94;77.94;97924.95;108071;1281;22544;-79
2023/12/18 02:13:52;;;;;;;5.40;2.70;;;;;;;4.86;78.00;97925.27;108105;1280;24148;-80
2023/12/18 02:16:23;;;;;;;4.30;2.30;;;;;;;4.84;78.19;97915.50;108074;1274;24572;-79
2023/12/18 02:18:51;;;;;;;5.10;2.80;;;;;;;4.90;78.16;97922.42;108097;1281;23859;-80
2023/12/18 02:21:22;;;;;;;6.60;3.20;;;;;;;4.85;78.16;97924.55;108108;1275;25012;-80
2023/12/18 02:23:51;;;;;;;7.60;3.10;;;;;;;4.77;78.42;97918.04;108091;1281;22568;-80
2023/12/18 02:26:20;;;;;;;6.20;2.90;;;;;;;4.77;78.60;97912.29;108095;1281;22565;-79
2023/12/18 02:28:48;;;;;;;5.50;3.10;;;;;;;4.74;78.58;97903.66;108091;1281;23772;-80
2023/12/18 02:31:18;;;;;;;6.00;3.10;;;;;;;4.69;78.53;97901.59;108104;1277;25598;-80
2023/12/18 02:33:49;;;;;;;7.80;3.60;;;;;;;4.59;78.79;97903.20;108082;1274;22530;-79
2023/12/18 02:36:17;;;;;;;7.60;3.60;;;;;;;4.49;78.74;97905.98;108073;1275;22647;-80
2023/12/18 02:38:46;;;;;;;8.70;3.90;;;;;;;4.37;79.01;97901.45;108103;1274;22590;-80
2023/12/18 02:41:14;;;;;;;7.40;3.60;;;;;;;4.30;79.21;97902.37;108108;1281;25324;-79
2023/12/18 02:43:42;;;;;;;6.90;4.10;;;;;;;4.32;79.48;97903.20;108072;1274;22706;-80
2023/12/18 02:46:11;;;;;;;8.80;4.40;;;;;;;4.35;79.73;97902.54;108101;1282;25456;-80
2023/12/18 02:48:39;;;;;;;6.30;3.70;;;;;;;4.30;79.63;97899.81;108100;1279;24418;-80
2023/12/18 02:51:07;;;;;;;7.40;4.20;;;;;;;4.31;79.87;97904.42;108102;1281;22529;-80
2023/12/18 02:53:39;;;;;;;7.90;4.40;;;;;;;4.27;79.71;97900.88;108113;1279;22591;-80
2023/12/18 02:56:12;;;;;;;8.40;4.40;;;;;;;4.13;79.73;97903.70;108058;1282;22535;-79
2023/12/18 02:58:40;;;;;;;8.10;4.10;;;;;;;4.00;79.87;97907.67;108123;1274;22534;-80
2023/12/18 03:01:09;;;;;;;8.00;4.00;;;;;;;3.88;79.99;97911.64;108137;1280;22526;-79
2023/12/18 03:03:37;;;;;;;6.30;3.50;;;;;;;3.85;80.48;97910.31;108073;1275;26700;-80
2023/12/18 03:06:06;;;;;;;6.90;3.80;;;;;;;3.89;80.75;97909.34;108122;1281;25243;-79
2023/12/18 03:08:35;;;;;;;5.50;3.60;;;;;;;3.86;80.96;97905.95;108136;1281;22598;-80
2023/12/18 03:11:08;;;;;;;6.00;3.60;;;;;;;3.81;80.94;97902.25;108022;1274;145294;-80
2023/12/18 03:13:36;;;;;;;8.00;4.00;;;;;;;3.73;81.08;97905.80;108091;1282;22598;-80
2023/12/18 03:16:05;;;;;;;7.80;3.80;;;;;;;3.66;81.13;97900.27;108088;1282;22551;-79
2023/12/18 03:18:36;;;;;;;5.80;3.30;;;;;;;3.58;81.41;97903.58;108140;1281;22531;-80
2023/12/18 03:21:08;;;;;;;6.40;3.20;;;;;;;3.56;81.84;97900.96;108076;1280;22538;-80
2023/12/18 03:23:37;;;;;;;6.50;3.50;;;;;;;3.59;81.94;97904.67;108194;1281;22542;-80
2023/12/18 03:26:05;;;;;;;5.10;3.10;;;;;;;3.63;82.36;97895.59;108062;1278;22526;-79
2023/12/18 03:28:36;;;;;;;6.60;3.50;;;;;;;3.79;82.75;97897.16;108096;1274;22602;-80
2023/12/18 03:31:04;;;;;;;8.70;3.00;;;;;;;3.88;82.55;97889.65;108125;1282;22538;-80
2023/12/18 03:33:38;;;;;;;7.30;4.00;;;;;;;3.95;82.56;97882.09;108108;1281;25109;-80
2023/12/18 03:36:09;;;;;;;5.50;3.50;;;;;;;4.00;82.34;97887.34;108088;1281;22527;-80
2023/12/18 03:38:37;;;;;;;8.00;3.80;;;;;;;4.05;82.13;97887.04;108100;1281;22603;-80
2023/12/18 03:41:08;;;;;;;5.70;2.90;;;;;;;4.16;82.03;97875.19;108122;1281;22523;-79
2023/12/18 03:43:39;;;;;;;6.90;3.40;;;;;;;4.30;81.78;97875.10;108117;1275;22529;-80
2023/12/18 03:46:07;;;;;;;7.00;3.60;;;;;;;4.25;81.36;97871.24;108060;1282;22904;-80
2023/12/18 03:48:38;;;;;;;6.60;3.60;;;;;;;4.10;81.22;97870.98;108115;1281;25180;-80
2023/12/18 03:51:06;;;;;;;5.70;3.50;;;;;;;4.03;81.41;97870.33;108085;1281;22542;-80
2023/12/18 03:53:35;;;;;;;5.70;3.40;;;;;;;4.02;81.44;97875.86;108100;1281;23787;-80
2023/12/18 03:56:06;;;;;;;4.90;2.40;;;;;;;4.07;81.68;97874.36;108070;1274;24234;-80
2023/12/18 03:58:36;;;;;;;4.30;2.20;;;;;;;4.21;81.54;97872.66;108096;1281;22726;-80
2023/12/18 04:01:05;;;;;;;4.50;2.90;;;;;;;4.39;81.08;97879.15;108108;1271;22534;-80
2023/12/18 04:03:36;;;;;;;6.10;2.80;;;;;;;4.45;80.88;97875.29;108088;1281;23327;-80
2023/12/18 04:06:08;;;;;;;5.00;3.10;;;;;;;4.51;80.06;97873.79;108076;1279;22536;-80
2023/12/18 04:08:39;;;;;;;7.60;3.70;;;;;;;4.48;79.93;97879.81;108193;1259;22598;-80
2023/12/18 04:11:15;;;;;;;6.70;3.70;;;;;;;4.32;79.95;97880.47;108083;1275;22545;-80
2023/12/18 04:13:43;;;;;;;4.40;2.60;;;;;;;4.13;79.90;97883.34;108129;1281;22783;-80
2023/12/18 04:16:11;;;;;;;5.90;3.20;;;;;;;3.95;80.02;97881.48;108090;1275;23926;-79
2023/12/18 04:18:42;;;;;;;6.00;3.10;;;;;;;3.82;80.29;97883.04;108133;1281;22707;-80
2023/12/18 04:21:11;;;;;;;3.50;2.00;;;;;;;3.73;80.67;97875.70;108113;1282;22946;-80
2023/12/18 04:23:39;;;;;;;2.90;2.10;;;;;;;3.79;81.17;97875.20;108100;1281;22530;-80
2023/12/18 04:26:10;;;;;;;3.30;2.00;;;;;;;3.93;81.12;97871.72;108081;1281;24192;-79
2023/12/18 04:28:38;;;;;;;5.50;2.30;;;;;;;4.08;81.17;97876.17;108123;1281;22997;-79
2023/12/18 04:31:08;;;;;;;3.20;2.10;;;;;;;4.07;80.84;97878.92;108099;1281;24228;-79
2023/12/18 04:33:39;;;;;;;4.50;2.50;;;;;;;3.91;80.85;97881.58;108151;1281;22533;-80
2023/12/18 04:36:09;;;;;;;3.90;2.80;;;;;;;3.72;81.03;97878.29;108142;1274;24015;-80
2023/12/18 04:38:40;;;;;;;4.30;2.50;;;;;;;3.56;81.06;97876.27;108158;1281;24234;-80
2023/12/18 04:41:16;;;;;;;4.80;2.60;;;;;;;3.39;81.49;97880.59;108128;1282;22556;-80
2023/12/18 04:43:46;;;;;;;6.00;3.00;;;;;;;3.26;81.91;97883.56;108074;1275;25434;-80
2023/12/18 04:46:15;;;;;;;6.00;2.80;;;;;;;3.21;82.36;97877.21;108099;1279;22531;-80
2023/12/18 04:48:43;;;;;;;5.40;3.30;;;;;;;3.19;82.63;97874.84;108129;1281;22537;-80
2023/12/18 04:51:14;;;;;;;7.10;3.40;;;;;;;3.18;82.75;97876.69;108124;1281;22617;-80
2023/12/18 04:53:42;;;;;;;6.30;3.40;;;;;;;3.15;82.68;97878.55;108093;1280;22524;-79
2023/12/18 04:56:13;;;;;;;7.80;3.60;;;;;;;3.07;82.90;97875.14;108097;1281;24134;-80
2023/12/18 04:58:41;;;;;;;5.70;3.20;;;;;;;3.02;82.92;97872.73;108126;1282;22538;-80
2023/12/18 05:01:11;;;;;;;5.90;2.60;;;;;;;3.10;83.24;97870.84;108136;1281;22533;-80
2023/12/18 05:03:42;;;;;;;4.30;2.70;;;;;;;3.15;83.16;97867.95;108125;1259;22551;-80
2023/12/18 05:13:14;;;;;;;4.60;2.80;;;;;;;3.35;83.16;97850.54;108104;1281;22528;-80
2023/12/18 05:15:43;;;;;;;3.80;2.20;;;;;;;3.36;83.13;97852.80;108069;1281;24161;-79
2023/12/18 05:18:11;;;;;;;4.10;2.50;;;;;;;3.42;83.21;97856.72;108126;1278;22556;-80
2023/12/18 05:20:42;;;;;;;4.80;2.20;;;;;;;3.50;83.19;97863.77;108090;1276;23028;-80
2023/12/18 05:23:11;;;;;;;2.70;1.70;;;;;;;3.67;83.57;97866.95;108094;1282;22579;-80
2023/12/18 05:25:39;;;;;;;3.60;1.80;;;;;;;3.93;83.54;97865.19;108077;1282;29291;-79
2023/12/18 05:28:07;;;;;;;3.30;2.00;;;;;;;4.17;83.56;97870.21;108135;1277;23087;-80
2023/12/18 05:30:36;;;;;;;4.30;1.90;;;;;;;4.35;83.25;97865.27;108102;1277;22620;-80
2023/12/18 05:33:08;;;;;;;4.10;1.30;;;;;;;4.42;82.56;97861.26;108141;1282;22536;-80
2023/12/18 05:35:36;;;;;;;4.00;2.40;;;;;;;4.48;82.16;97859.32;108097;1281;22545;-79
2023/12/18 05:38:07;;;;;;;4.00;2.40;;;;;;;4.43;81.66;97871.66;108110;1274;22526;-80
2023/12/18 05:40:38;;;;;;;3.80;2.20;;;;;;;4.31;81.30;97874.82;108134;1281;22529;-80
2023/12/18 05:43:06;;;;;;;2.10;1.30;;;;;;;4.29;81.90;97870.30;108097;1281;22575;-79
2023/12/18 05:45:34;;;;;;;2.90;2.20;;;;;;;4.56;81.46;97876.51;108094;1274;28404;-79
2023/12/18 05:48:03;;;;;;;4.40;2.50;;;;;;;4.58;80.90;97871.20;108088;1281;24256;-80
2023/12/18 05:50:34;;;;;;;5.10;2.40;;;;;;;4.40;80.39;97874.10;108098;1281;23818;-79
2023/12/18 05:53:02;;;;;;;4.60;2.60;;;;;;;4.21;80.38;97872.79;108106;1274;24288;-80
2023/12/18 05:55:31;;;;;;;4.20;2.40;;;;;;;4.00;80.18;97878.89;108084;1281;22530;-79
2023/12/18 05:57:59;;;;;;;4.40;2.40;;;;;;;3.86;80.47;97877.42;108094;1281;22579;-79
2023/12/18 06:00:27;;;;;;;5.20;2.50;;;;;;;3.79;80.71;97881.17;108148;1278;25233;-80
2023/12/18 06:02:56;;;;;;;5.90;2.50;;;;;;;3.77;80.63;97880.09;108097;1282;24225;-80
2023/12/18 06:05:24;;;;;;;5.00;2.60;;;;;;;3.80;80.89;97879.20;108105;1274;26722;-79
2023/12/18 06:07:53;;;;;;;4.70;3.10;;;;;;;3.68;80.67;97878.65;108122;1281;24005;-79
2023/12/18 06:10:21;;;;;;;4.50;2.20;;;;;;;3.56;80.77;97870.62;108106;1282;22724;-80
2023/12/18 06:12:51;;;;;;;3.60;2.40;;;;;;;3.42;80.71;97869.82;108124;1281;22559;-79
2023/12/18 06:15:19;;;;;;;4.10;2.00;;;;;;;3.36;81.01;97870.02;108135;1282;23888;-80
2023/12/18 06:17:49;;;;;;;3.30;2.00;;;;;;;3.34;81.24;97868.68;108157;1282;22680;-80
2023/12/18 06:20:17;;;;;;;4.00;2.20;;;;;;;3.46;81.74;97867.97;108117;1281;23947;-79
2023/12/18 06:22:45;;;;;;;5.90;2.50;;;;;;;3.67;81.79;97867.48;108079;1281;25422;-79
2023/12/18 06:25:17;;;;;;;3.60;2.20;;;;;;;3.90;82.03;97867.93;108130;1279;22579;-79
2023/12/18 06:27:45;;;;;;;3.50;1.70;;;;;;;4.07;81.62;97872.21;108110;1264;22542;-80
2023/12/18 06:30:18;;;;;;;3.20;1.60;;;;;;;4.17;81.52;97876.84;108128;1281;24038;-79
2023/12/18 06:32:46;;;;;;;2.90;1.40;;;;;;;4.37;80.81;97876.01;108087;1282;22539;-80
2023/12/18 06:35:17;;;;;;;1.80;1.10;;;;;;;4.67;79.73;97869.14;108101;1282;22675;-79
2023/12/18 06:37:45;;;;;;;3.20;1.80;;;;;;;4.90;78.19;97876.83;108080;1281;24244;-79
2023/12/18 06:40:15;;;;;;;2.90;1.60;;;;;;;5.06;76.93;97881.15;108108;1266;23053;-79
2023/12/18 06:42:44;;;;;;;3.00;1.70;;;;;;;5.12;76.55;97880.94;108073;1281;25505;-79
2023/12/18 06:45:12;;;;;;;3.00;1.50;;;;;;;5.21;75.79;97880.09;108117;1275;24221;-79
2023/12/18 06:47:44;;;;;;;4.30;2.00;;;;;;;5.19;75.68;97889.88;108095;1281;24202;-79
2023/12/18 06:50:13;;;;;;;2.60;1.70;;;;;;;5.12;75.63;97891.67;108108;1262;22580;-79
2023/12/18 06:52:43;;;;;;;4.10;2.30;;;;;;;5.05;75.75;97891.02;108069;1282;24260;-79
2023/12/18 06:55:14;;;;;;;5.60;2.70;;;;;;;4.94;76.12;97895.45;108221;1281;22550;-80
2023/12/18 06:57:45;;;;;;;4.70;2.20;;;;;;;4.85;76.28;97894.61;108067;1280;22650;-79
2023/12/18 07:00:17;;;;;;;4.00;1.70;;;;;;;4.89;76.22;97894.65;108079;1275;22559;-80
2023/12/18 07:02:45;;;;;;;2.80;1.40;;;;;;;4.94;76.08;97894.20;108139;1280;22524;-79
2023/12/18 07:05:16;;;;;;;3.90;1.70;;;;;;;5.00;75.37;97902.24;108115;1264;22552;-79
2023/12/18 07:07:44;;;;;;;3.40;2.20;;;;;;;5.08;75.27;97910.00;108143;1282;25438;-79
2023/12/18 07:10:13;;;;;;;4.60;2.50;;;;;;;5.07;75.47;97913.89;108099;1282;22717;-79
2023/12/18 07:12:41;;;;;;;4.90;3.00;;;;;;;4.98;75.60;97914.99;108097;1281;23302;-79
2023/12/18 07:15:10;;;;;;;3.80;2.30;;;;;;;4.95;76.19;97911.73;108144;1275;22536;-79
2023/12/18 07:17:39;;;;;;;4.20;2.40;;;;;;;5.09;76.36;97912.30;108100;1281;22542;-79
2023/12/18 07:20:09;;;;;;;5.60;2.90;;;;;;;5.37;76.64;97913.27;108118;1276;22526;-79
2023/12/18 07:22:39;;;;;;;3.00;2.20;;;;;;;5.56;76.39;97907.38;108162;1280;23934;-79
2023/12/18 07:25:09;;;;;;;2.90;2.00;;;;;;;5.66;75.73;97909.77;108118;1274;22592;-79
2023/12/18 07:27:37;;;;;;;3.70;2.40;;;;;;;5.94;75.81;97920.46;108132;1275;25560;-79
2023/12/18 07:30:08;;;;;;;4.90;2.50;;;;;;;6.11;75.46;97927.59;108063;1281;25224;-79
2023/12/18 07:32:37;;;;;;;5.20;2.60;;;;;;;6.21;74.68;97924.77;108160;1282;22546;-79
2023/12/18 07:35:08;;;;;;;3.50;2.30;;;;;;;6.24;74.10;97931.73;108079;1280;25426;-79
2023/12/18 07:37:36;;;;;;;5.30;2.80;;;;;;;6.37;74.53;97930.84;108138;1281;22541;-79
2023/12/18 07:40:07;;;;;;;4.10;2.60;;;;;;;6.58;74.64;97931.95;108067;1274;22750;-79
2023/12/18 07:42:37;;;;;;;4.20;2.70;;;;;;;6.72;74.04;97934.28;108147;1281;22541;-79
2023/12/18 07:45:08;;;;;;;5.40;2.70;;;;;;;6.72;73.73;97934.29;108106;1275;22530;-79
2023/12/18 07:47:40;;;;;;;4.30;2.60;;;;;;;6.87;74.25;97929.58;108107;1282;22829;-79
2023/12/18 07:50:10;;;;;;;4.40;2.50;;;;;;;7.01;74.14;97923.84;108125;1275;25570;-79
2023/12/18 07:52:38;;;;;;;4.40;2.90;;;;;;;7.18;74.18;97924.62;108090;1274;22536;-79
2023/12/18 07:55:09;;;;;;;5.40;2.80;;;;;;;7.27;73.92;97923.48;108092;1281;22523;-79
2023/12/18 07:57:40;;;;;;;4.40;2.30;;;;;;;7.38;73.76;97921.14;108090;1282;22559;-79
2023/12/18 08:00:11;;;;;;;3.20;2.30;;;;;;;7.45;72.68;97921.61;108112;1278;22798;-79
2023/12/18 08:02:40;;;;;;;3.60;2.40;;;;;;;7.72;72.55;97909.72;108110;1283;25305;-79
2023/12/18 08:05:09;;;;;;;3.50;2.40;;;;;;;7.69;71.62;97908.98;108091;1282;22594;-78
2023/12/18 08:07:38;;;;;;;3.80;2.00;;;;;;;7.78;71.30;97905.16;108074;1281;24164;-79
2023/12/18 08:10:08;;;;;;;;;;;;;;;7.68;69.84;97900.71;108117;1275;22520;-79
2023/12/18 08:12:39;;;;;;;3.80;2.20;;;;;;;7.54;68.76;97891.56;108209;1281;22536;-78
2023/12/18 08:15:09;;;;;;;4.00;2.30;;;;;;;7.39;67.73;97894.83;108113;1281;22555;-78
2023/12/18 08:17:41;;;;;;;3.30;2.10;;;;;;;7.29;66.12;97885.23;108118;1271;22666;-78
2023/12/18 08:20:11;;;;;;;4.30;1.80;;;;;;;7.21;66.90;97888.89;108127;1281;22529;-78
2023/12/18 08:22:44;;;;;;;3.30;1.50;;;;;;;7.18;65.85;97886.17;108157;1281;22554;-78
2023/12/18 08:25:17;;;;;;;4.70;2.80;;;;;;;7.14;65.27;97887.39;108069;1279;22531;-78
2023/12/18 08:27:45;;;;;;;5.10;2.90;;;;;;;7.21;65.69;97886.70;108125;1281;22634;-78
2023/12/18 08:30:15;;;;;;;5.70;3.60;;;;;;;7.24;66.74;97893.02;108113;1276;22516;-78
2023/12/18 08:32:45;;;;;;;5.80;2.90;;;;;;;7.38;67.68;97895.86;108148;1281;24217;-78
2023/12/18 08:35:13;;;;;;;5.60;3.20;;;;;;;7.48;67.43;97897.86;108098;1275;22544;-78
2023/12/18 08:37:42;;;;;;;4.50;2.50;;;;;;;7.55;67.46;97890.67;108096;1281;22627;-78
2023/12/18 08:40:13;;;;;;;5.30;2.30;;;;;;;7.62;67.47;97892.45;108076;1275;22554;-78
2023/12/18 08:42:43;;;;;;;4.80;2.80;;;;;;;7.70;67.23;97892.30;108150;1270;22538;-78
2023/12/18 08:45:14;;;;;;;5.00;2.90;;;;;;;7.84;67.74;97883.23;108073;1281;23795;-78
2023/12/18 08:47:45;;;;;;;4.40;2.70;;;;;;;7.87;67.38;97872.33;108088;1282;22537;-78
2023/12/18 08:50:14;;;;;;;4.30;3.20;;;;;;;7.94;67.70;97871.90;108106;1279;22579;-78
2023/12/18 08:52:44;;;;;;;5.60;2.60;;;;;;;8.01;67.45;97863.80;108069;1282;22665;-78
2023/12/18 08:55:14;;;;;;;6.20;3.60;;;;;;;8.00;66.53;97862.51;108115;1281;22526;-78
2023/12/18 08:57:43;;;;;;;5.20;3.10;;;;;;;8.07;66.71;97868.27;108085;1282;24041;-78
2023/12/18 09:00:14;;;;;;;5.20;3.50;;;;;;;8.12;66.67;97862.10;108079;1281;22524;-78
2023/12/18 09:02:42;;;;;;;4.50;2.90;;;;;;;8.18;67.10;97860.45;108143;1281;24157;-78
2023/12/18 09:05:11;;;;;;;5.40;3.00;;;;;;;8.28;67.19;97853.79;108100;1281;22555;-78
2023/12/18 09:07:39;;;;;;;4.50;2.80;;;;;;;8.45;67.48;97851.67;108126;1281;30558;-78
2023/12/18 09:10:09;;;;;;;6.90;3.40;;;;;;;8.59;67.26;97844.88;108163;1281;25442;-78
2023/12/18 09:12:37;;;;;;;4.40;2.90;;;;;;;8.72;66.75;97846.48;108155;1281;22674;-78
2023/12/18 09:15:08;;;;;;;4.20;2.80;;;;;;;8.81;64.81;97842.95;108108;1277;22542;-78
2023/12/18 09:17:36;;;;;;;6.60;3.40;;;;;;;8.75;63.41;97845.55;108061;1281;23951;-78
2023/12/18 09:20:06;;;;;;;4.20;2.60;;;;;;;8.71;63.87;97844.45;108109;1281;23206;-78
2023/12/18 09:22:35;;;;;;;4.80;2.80;;;;;;;8.72;63.81;97843.22;108114;1282;22555;-78
2023/12/18 09:25:05;;;;;;;5.70;3.00;;;;;;;8.72;63.88;97839.45;108083;1271;22850;-78
2023/12/18 09:27:36;;;;;;;4.20;2.70;;;;;;;8.80;62.66;97825.81;108068;1279;22686;-78
2023/12/18 09:30:08;;;;;;;6.50;2.90;;;;;;;8.82;62.63;97835.36;108121;1281;22500;-78
2023/12/18 09:32:40;;;;;;;7.10;3.10;;;;;;;8.89;62.67;97837.08;108116;1281;22540;-78
2023/12/18 09:35:08;;;;;;;3.60;2.40;;;;;;;8.92;62.02;97834.77;108111;1281;23859;-78
2023/12/18 09:37:37;;;;;;;2.50;1.90;;;;;;;8.92;61.08;97830.91;108103;1281;25521;-78
2023/12/18 09:40:08;;;;;;;3.90;2.10;;;;;;;8.92;59.60;97817.20;108103;1281;22525;-78
2023/12/18 09:42:39;;;;;;;6.60;3.50;;;;;;;8.92;59.72;97811.80;108089;1281;22530;-78
2023/12/18 09:45:08;;;;;;;;;;;;;;;8.96;60.31;97810.85;108103;1274;22880;-79
2023/12/18 09:47:37;;;;;;;5.30;2.30;;;;;;;9.01;60.48;97804.18;108139;1281;25258;-79
2023/12/18 09:50:08;;;;;;;;;;;;;;;9.01;60.64;97804.23;108202;1281;22515;-79
2023/12/18 09:52:46;;;;;;;7.70;3.60;;;;;;;9.09;61.51;97811.45;108156;1281;22681;-79
2023/12/18 09:55:15;;;;;;;5.10;3.10;;;;;;;9.15;61.48;97803.83;108110;1281;25190;-79
2023/12/18 09:57:48;;;;;;;8.40;4.40;;;;;;;9.19;60.22;97796.45;108195;1282;22942;-79
2023/12/18 10:00:20;;;;;;;6.20;3.50;;;;;;;9.22;60.74;97796.13;108115;1281;22548;-79
2023/12/18 10:02:49;;;;;;;7.50;3.10;;;;;;;9.32;60.98;97797.71;108165;1281;22589;-79
2023/12/18 10:05:17;;;;;;;5.50;3.60;;;;;;;9.41;60.61;97801.09;108102;1282;22537;-79
2023/12/18 10:07:46;;;;;;;6.20;3.80;;;;;;;9.49;61.26;97790.98;108122;1264;22533;-79
2023/12/18 10:10:15;;;;;;;5.60;2.80;;;;;;;9.58;61.24;97788.99;108092;1281;24265;-79
2023/12/18 10:12:43;;;;;;;6.40;4.00;;;;;;;9.56;59.44;97789.71;108106;1281;24198;-79
2023/12/18 10:15:15;;;;;;;7.80;3.50;;;;;;;9.53;59.70;97782.09;108113;1277;22556;-80
2023/12/18 10:17:44;;;;;;;8.60;4.50;;;;;;;9.49;58.89;97783.42;108065;1281;22591;-80
2023/12/18 10:20:15;;;;;;;7.40;3.70;;;;;;;9.55;60.15;97785.05;108136;1277;22541;-80
2023/12/18 10:22:43;;;;;;;5.60;3.10;;;;;;;9.61;59.15;97772.16;108110;1282;22537;-80
2023/12/18 10:25:13;;;;;;;7.40;4.10;;;;;;;9.64;58.47;97777.86;108142;1281;25494;-80
2023/12/18 10:27:42;;;;;;;6.00;2.50;;;;;;;9.66;58.59;97778.48;108147;1282;24980;-80
2023/12/18 10:30:13;;;;;;;4.90;3.30;;;;;;;9.78;59.12;97766.14;108129;1281;22551;-80
2023/12/18 10:32:44;;;;;;;4.40;2.70;;;;;;;9.85;58.46;97769.98;108124;1281;22550;-80
2023/12/18 10:35:17;;;;;;;5.00;3.10;;;;;;;9.86;57.96;97769.39;108140;1274;22526;-80
2023/12/18 10:37:48;;;;;;;6.40;3.10;;;;;;;9.89;57.60;97766.88;108091;1282;24175;-80
2023/12/18 10:40:19;;;;;;;6.50;3.60;;;;;;;9.91;57.43;97765.95;108124;1281;22767;-80
2023/12/18 10:42:56;;;;;;;6.30;3.30;;;;;;;10.01;57.90;97764.01;108098;1280;23819;-80
2023/12/18 10:45:27;;;;;;;5.00;2.40;;;;;;;10.11;57.95;97765.24;108125;1276;22539;-79
2023/12/18 10:47:56;;;;;;;5.00;3.30;;;;;;;10.19;57.78;97765.61;108100;1282;22594;-80
2023/12/18 10:50:26;;;;;;;6.90;3.70;;;;;;;10.33;58.67;97761.98;108097;1281;25258;-80
2023/12/18 10:52:57;;;;;;;8.00;4.20;;;;;;;10.46;58.84;97761.92;108113;1281;22535;-80
2023/12/18 10:55:27;;;;;;;6.50;3.80;;;;;;;10.49;57.76;97761.36;108081;1281;22748;-79
2023/12/18 10:57:58;;;;;;;5.50;3.20;;;;;;;10.47;57.69;97765.05;108089;1282;22533;-79
2023/12/18 11:00:28;;;;;;;4.90;2.90;;;;;;;10.49;57.31;97754.36;108152;1280;22716;-80
2023/12/18 11:02:57;;;;;;;6.00;3.70;;;;;;;10.49;57.04;97750.55;108123;1281;23037;-80
2023/12/18 11:05:26;;;;;;;5.10;3.10;;;;;;;10.53;57.27;97746.98;108148;1281;24862;-79
2023/12/18 11:07:56;;;;;;;4.10;2.60;;;;;;;10.61;57.28;97742.88;108131;1281;22476;-80
2023/12/18 11:10:25;;;;;;;5.00;2.30;;;;;;;10.65;56.56;97737.52;108125;1279;24051;-80
2023/12/18 11:12:58;;;;;;;;;;;;;;;10.65;56.53;97729.77;108162;1277;22525;-80
2023/12/18 11:15:37;;;;;;;4.10;2.00;;;;;;;10.65;55.61;97714.48;108069;1279;22550;-79
2023/12/18 11:18:18;;;;;;;2.50;1.60;;;;;;;10.64;54.93;97708.90;108144;1281;26507;-80
2023/12/18 11:20:48;;;;;;;4.10;1.70;;;;;;;10.64;55.04;97713.64;108143;1281;24224;-80
2023/12/18 11:23:16;;;;;;;3.90;1.60;;;;;;;10.66;54.68;97704.20;108091;1281;23803;-80
2023/12/18 11:25:50;;;;;;;4.20;2.20;;;;;;;10.69;54.74;97703.02;108079;1281;23407;-79
2023/12/18 11:28:24;;;;;;;4.50;2.10;;;;;;;10.72;54.39;97700.03;108110;1277;22539;-80
2023/12/18 11:31:01;;;;;;;4.50;1.90;;;;;;;10.74;54.36;97695.42;108121;1281;23862;-80
2023/12/18 11:33:30;;;;;;;4.10;2.00;;;;;;;10.79;54.18;97691.00;108107;1280;24198;-80
2023/12/18 11:36:00;;;;;;;2.90;1.50;;;;;;;10.84;54.04;97678.26;108092;1281;22609;-80
2023/12/18 11:38:33;;;;;;;4.50;2.30;;;;;;;10.85;54.03;97683.90;108104;1281;22568;-80
2023/12/18 11:41:04;;;;;;;4.60;2.70;;;;;;;10.91;54.47;97690.89;108110;1281;24172;-80
2023/12/18 11:43:36;;;;;;;2.80;1.30;;;;;;;11.02;53.99;97687.42;108141;1281;22717;-81
2023/12/18 11:46:04;;;;;;;;;;;;;;;11.03;53.33;97686.64;108084;1281;22509;-80
2023/12/18 11:48:33;;;;;;;4.10;2.20;;;;;;;11.03;53.03;97679.69;108098;1277;25300;-81
2023/12/18 11:51:02;;;;;;;4.20;2.50;;;;;;;11.07;53.61;97680.98;108121;1281;22537;-81
2023/12/18 11:53:33;;;;;;;;;;;;;;;11.12;53.61;97675.17;108158;1276;22498;-80